Time;durP1;ratioP1;P1;durP2;ratioP2;P2;SDS_P1;SDS_P2;PMS_P1;PMS_P2;Temp;Humidity;BMP_temperature;BMP_pressure;BME280_temperature;BME280_humidity;BME280_pressure;Samples;Min_cycle;Max_cycle;Signal;HPM_P1;HPM_P2
2023/06/30 00:00:12;;;;;;;7.18;3.28;;;;;;;20.95;56.45;97912.31;4394480;32;20125;-80
2023/06/30 00:02:46;;;;;;;8.35;3.58;;;;;;;20.53;57.71;97911.59;4395785;32;20110;-80
2023/06/30 00:05:16;;;;;;;11.57;3.87;;;;;;;21.07;56.09;97905.16;4395556;32;20089;-80
2023/06/30 00:07:43;;;;;;;9.05;3.80;;;;;;;20.99;56.28;97905.00;4395607;32;20142;-80
2023/06/30 00:10:10;;;;;;;7.60;3.03;;;;;;;20.75;57.25;97907.97;4395424;32;20167;-80
2023/06/30 00:12:37;;;;;;;9.60;3.55;;;;;;;20.94;56.76;97900.13;4395461;32;20082;-80
2023/06/30 00:15:05;;;;;;;8.18;3.40;;;;;;;20.71;57.14;97894.25;4395716;32;20133;-80
2023/06/30 00:17:32;;;;;;;7.20;3.15;;;;;;;20.67;56.42;97889.44;4395652;32;20074;-80
2023/06/30 00:19:59;;;;;;;7.97;3.37;;;;;;;21.01;55.31;97900.44;4395000;32;20114;-80
2023/06/30 00:22:26;;;;;;;10.80;3.80;;;;;;;20.51;56.61;97892.53;4395754;32;20105;-80
2023/06/30 00:24:55;;;;;;;9.15;3.33;;;;;;;20.63;56.98;97893.25;4395644;32;20074;-80
2023/06/30 00:27:23;;;;;;;6.50;3.22;;;;;;;20.45;57.63;97888.66;4395367;32;20492;-80
2023/06/30 00:29:50;;;;;;;8.27;3.10;;;;;;;20.14;58.43;97889.56;4396009;32;20460;-80
2023/06/30 00:32:18;;;;;;;6.90;3.37;;;;;;;20.86;56.74;97891.28;4396116;32;20585;-80
2023/06/30 00:34:45;;;;;;;11.95;3.60;;;;;;;20.55;57.56;97890.50;4395527;32;20151;-80
2023/06/30 00:37:12;;;;;;;9.85;3.35;;;;;;;20.42;57.85;97883.69;4395466;32;20121;-80
2023/06/30 00:39:39;;;;;;;9.57;3.40;;;;;;;20.87;56.52;97877.22;4394899;32;20694;-80
2023/06/30 00:42:08;;;;;;;9.38;3.55;;;;;;;20.35;57.92;97877.25;4395491;32;20575;-80
2023/06/30 00:44:35;;;;;;;9.57;3.30;;;;;;;20.65;57.24;97876.47;4395464;32;20152;-80
2023/06/30 00:47:02;;;;;;;7.85;3.40;;;;;;;20.86;56.46;97873.78;4395145;32;20104;-80
2023/06/30 00:49:30;;;;;;;10.43;3.70;;;;;;;20.58;57.41;97880.56;4395267;32;20099;-80
2023/06/30 00:51:58;;;;;;;8.00;3.37;;;;;;;20.02;58.25;97870.47;4395273;32;20562;-80
2023/06/30 00:54:25;;;;;;;8.07;3.30;;;;;;;19.88;60.19;97876.00;4395024;32;20094;-80
2023/06/30 00:56:52;;;;;;;7.25;3.28;;;;;;;20.39;58.03;97876.03;4395423;32;20083;-80
2023/06/30 00:59:19;;;;;;;6.60;3.30;;;;;;;20.08;58.97;97871.72;4395215;32;20107;-80
2023/06/30 01:01:48;;;;;;;5.95;3.12;;;;;;;20.72;57.37;97866.25;4395015;32;20086;-80
2023/06/30 01:04:24;;;;;;;8.45;3.50;;;;;;;20.48;58.31;97872.66;4395339;32;20122;-80
2023/06/30 01:07:00;;;;;;;11.05;3.70;;;;;;;20.24;58.74;97864.25;4381937;32;20105;-80
2023/06/30 01:09:30;;;;;;;7.80;3.50;;;;;;;20.16;58.98;97866.69;4381358;32;20102;-80
2023/06/30 01:11:58;;;;;;;5.95;2.92;;;;;;;20.41;57.82;97863.62;4394208;32;20090;-80
2023/06/30 01:14:26;;;;;;;11.50;3.60;;;;;;;20.13;58.95;97859.09;4394949;32;20162;-80
2023/06/30 01:16:54;;;;;;;7.12;3.50;;;;;;;20.36;57.88;97863.19;4395178;32;20104;-80
2023/06/30 01:19:30;;;;;;;8.40;3.70;;;;;;;20.02;59.10;97864.41;4381409;32;20125;-80
2023/06/30 01:22:04;;;;;;;7.87;3.53;;;;;;;19.87;59.78;97858.66;4395066;32;20086;-80
2023/06/30 01:24:33;;;;;;;9.10;3.92;;;;;;;20.19;59.08;97861.19;4381749;32;20086;-80
2023/06/30 01:27:01;;;;;;;10.60;3.30;;;;;;;20.12;59.22;97860.06;4395218;32;20078;-80
2023/06/30 01:29:29;;;;;;;9.43;3.45;;;;;;;19.78;60.41;97862.03;4380929;32;20099;-80
2023/06/30 01:31:56;;;;;;;6.90;3.40;;;;;;;19.14;62.40;97854.19;4381626;32;20132;-80
2023/06/30 01:34:23;;;;;;;7.70;3.60;;;;;;;19.30;61.98;97863.28;4369218;32;20098;-80
2023/06/30 01:36:50;;;;;;;10.20;3.40;;;;;;;19.42;61.89;97858.84;4394741;32;20112;-80
2023/06/30 01:39:17;;;;;;;9.02;3.62;;;;;;;19.78;60.40;97852.41;4394731;32;20162;-80
2023/06/30 01:41:45;;;;;;;8.20;3.40;;;;;;;19.59;61.51;97852.28;4395054;32;20125;-80
2023/06/30 01:44:12;;;;;;;8.20;3.55;;;;;;;19.96;59.96;97850.03;4394816;32;20102;-80
2023/06/30 01:46:39;;;;;;;10.88;3.72;;;;;;;19.64;61.50;97845.69;4381566;32;20082;-80
2023/06/30 01:49:06;;;;;;;10.57;4.22;;;;;;;19.91;60.71;97844.34;4394848;32;20523;-80
2023/06/30 01:51:33;;;;;;;8.38;3.42;;;;;;;19.93;60.63;97851.13;4381565;32;20118;-80
2023/06/30 01:54:00;;;;;;;8.80;3.60;;;;;;;20.56;58.58;97851.03;4394976;32;20090;-80
2023/06/30 01:56:28;;;;;;;8.98;3.75;;;;;;;19.56;61.29;97844.66;4394803;32;20502;-80
2023/06/30 01:58:55;;;;;;;8.48;3.70;;;;;;;20.17;59.83;97847.38;4394861;32;20131;-80
2023/06/30 02:01:22;;;;;;;7.70;3.53;;;;;;;20.36;58.98;97847.47;4395018;32;20112;-80
2023/06/30 02:03:50;;;;;;;6.95;3.30;;;;;;;20.27;59.04;97848.25;4394660;32;20447;-80
2023/06/30 02:06:17;;;;;;;8.25;3.47;;;;;;;20.56;57.72;97851.03;4394923;32;20083;-80
2023/06/30 02:08:44;;;;;;;8.30;3.50;;;;;;;20.52;57.73;97844.37;4394633;32;20086;-80
2023/06/30 02:11:11;;;;;;;9.25;3.62;;;;;;;20.14;58.97;97845.03;4394634;32;20168;-80
2023/06/30 02:13:38;;;;;;;8.82;3.80;;;;;;;19.71;59.88;97840.78;4394947;32;20177;-80
2023/06/30 02:16:05;;;;;;;9.18;3.42;;;;;;;19.70;60.34;97841.75;4394875;32;20086;-80
2023/06/30 02:18:32;;;;;;;8.18;3.67;;;;;;;20.21;58.60;97847.00;4394203;32;20467;-80
2023/06/30 02:20:59;;;;;;;8.57;3.78;;;;;;;20.25;58.28;97839.72;4394835;32;20149;-80
2023/06/30 02:23:28;;;;;;;10.93;3.80;;;;;;;19.31;61.24;97838.78;4394415;32;20165;-80
2023/06/30 02:25:55;;;;;;;9.73;3.55;;;;;;;19.26;62.05;97843.56;4394488;32;20161;-80
2023/06/30 02:28:22;;;;;;;8.52;3.92;;;;;;;19.59;60.54;97840.00;4394681;32;20360;-80
2023/06/30 02:30:49;;;;;;;7.95;3.65;;;;;;;19.24;61.45;97844.63;4394663;32;20103;-80
2023/06/30 02:33:16;;;;;;;8.10;3.55;;;;;;;19.06;62.80;97842.56;4394429;32;20431;-80
2023/06/30 02:35:43;;;;;;;8.85;3.70;;;;;;;18.71;63.92;97837.50;4394661;32;20091;-80
2023/06/30 02:38:11;;;;;;;9.18;4.00;;;;;;;18.81;64.10;97844.63;4394616;32;20540;-80
2023/06/30 02:40:38;;;;;;;9.73;4.00;;;;;;;18.83;64.83;97843.59;4394123;32;20440;-80
2023/06/30 02:43:05;;;;;;;8.32;4.03;;;;;;;18.75;64.24;97838.13;4394688;32;20155;-80
2023/06/30 02:45:32;;;;;;;10.00;3.90;;;;;;;19.07;63.26;97832.94;4394242;32;20108;-80
2023/06/30 02:47:59;;;;;;;8.30;3.75;;;;;;;19.67;60.71;97825.44;4394578;32;20094;-80
2023/06/30 02:50:30;;;;;;;9.27;3.80;;;;;;;19.80;60.76;97839.19;4395141;32;20125;-80
2023/06/30 02:52:59;;;;;;;9.13;3.97;;;;;;;19.97;60.28;97827.28;4394804;32;20533;-80
2023/06/30 02:55:27;;;;;;;8.50;3.33;;;;;;;19.38;61.84;97823.44;4394480;32;20105;-80
2023/06/30 02:57:54;;;;;;;8.40;3.40;;;;;;;20.16;59.84;97822.97;4394421;32;20106;-80
2023/06/30 03:00:21;;;;;;;10.15;4.10;;;;;;;20.30;59.19;97826.19;4393879;32;20102;-80
2023/06/30 03:02:48;;;;;;;9.57;3.65;;;;;;;20.47;58.49;97823.84;4394355;32;20141;-80
2023/06/30 03:05:15;;;;;;;7.15;3.40;;;;;;;20.23;59.15;97823.28;4394360;32;20095;-80
2023/06/30 03:07:42;;;;;;;9.50;4.18;;;;;;;20.27;58.76;97818.63;4393903;32;20094;-80
2023/06/30 03:10:09;;;;;;;7.72;3.60;;;;;;;20.51;58.09;97814.72;4394047;32;20106;-80
2023/06/30 03:12:37;;;;;;;12.90;3.80;;;;;;;20.83;56.71;97813.72;4394175;32;20090;-80
2023/06/30 03:15:05;;;;;;;10.25;3.85;;;;;;;20.71;57.22;97818.25;4393818;32;20165;-80
2023/06/30 03:17:32;;;;;;;8.63;3.78;;;;;;;21.08;56.21;97818.44;4394076;32;20114;-80
2023/06/30 03:19:59;;;;;;;7.82;3.53;;;;;;;21.07;56.51;97815.97;4393676;32;20142;-80
2023/06/30 03:22:26;;;;;;;11.73;3.40;;;;;;;20.30;59.12;97813.09;4393962;32;20121;-80
2023/06/30 03:24:56;;;;;;;7.57;3.42;;;;;;;20.68;57.86;97821.13;4394004;32;20250;-80
2023/06/30 03:27:23;;;;;;;11.00;3.42;;;;;;;20.78;57.22;97818.53;4393834;32;20105;-80
2023/06/30 03:29:50;;;;;;;7.35;3.50;;;;;;;20.71;57.04;97817.41;4393569;32;20181;-80
2023/06/30 03:32:17;;;;;;;7.35;3.30;;;;;;;20.39;57.40;97821.00;4394014;32;20082;-80
2023/06/30 03:34:44;;;;;;;7.68;3.80;;;;;;;21.05;55.71;97823.97;4394217;32;20589;-80
2023/06/30 03:37:11;;;;;;;8.57;4.03;;;;;;;20.89;56.25;97820.22;4395955;32;20102;-80
2023/06/30 03:39:38;;;;;;;10.90;3.80;;;;;;;20.81;56.79;97823.50;4395692;32;20116;-80
2023/06/30 03:42:05;;;;;;;8.60;3.67;;;;;;;20.70;57.14;97815.75;4382091;32;20082;-80
2023/06/30 03:44:32;;;;;;;8.02;3.62;;;;;;;20.75;58.00;97816.19;4395828;32;20109;-80
2023/06/30 03:46:59;;;;;;;9.02;3.60;;;;;;;21.21;56.33;97822.59;4395867;32;20100;-80
2023/06/30 03:49:26;;;;;;;8.57;3.70;;;;;;;21.52;55.71;97816.28;4395343;32;20164;-80
2023/06/30 03:51:53;;;;;;;7.37;3.42;;;;;;;22.45;53.20;97815.50;4395903;32;20098;-80
2023/06/30 03:54:20;;;;;;;11.38;3.62;;;;;;;22.81;52.28;97812.94;4395816;32;20145;-80
2023/06/30 03:56:47;;;;;;;8.65;3.15;;;;;;;23.47;50.40;97802.09;4395457;32;20160;-80
2023/06/30 03:59:14;;;;;;;6.43;2.90;;;;;;;24.06;49.11;97810.28;4395593;32;20105;-80
2023/06/30 04:01:41;;;;;;;10.50;3.05;;;;;;;24.68;47.30;97809.12;4395946;32;20471;-81
2023/06/30 04:04:08;;;;;;;7.18;2.60;;;;;;;25.32;45.56;97812.06;4395980;32;20181;-80
2023/06/30 04:06:36;;;;;;;6.03;3.10;;;;;;;25.64;44.44;97805.97;4395844;32;20216;-81
2023/06/30 04:09:03;;;;;;;8.02;3.03;;;;;;;25.96;43.69;97807.78;4395384;32;20144;-81
2023/06/30 04:11:30;;;;;;;9.52;4.95;;;;;;;26.63;42.34;97796.84;4397359;32;20102;-79
2023/06/30 04:13:59;;;;;;;8.60;2.90;;;;;;;26.78;41.69;97806.50;4403857;32;20083;-80
2023/06/30 04:16:26;;;;;;;5.10;2.62;;;;;;;27.16;41.17;97806.66;4395788;32;20091;-81
2023/06/30 04:18:53;;;;;;;7.90;3.15;;;;;;;27.52;40.22;97800.75;4393952;32;20421;-81
2023/06/30 04:21:20;;;;;;;7.25;2.85;;;;;;;27.96;39.46;97796.38;4395132;32;20152;-81
2023/06/30 04:23:47;;;;;;;7.50;2.70;;;;;;;28.08;39.53;97794.12;4395301;32;20098;-81
2023/06/30 04:26:16;;;;;;;6.10;2.60;;;;;;;28.30;39.06;97791.59;4395579;32;20094;-81
2023/06/30 04:28:44;;;;;;;7.65;3.20;;;;;;;28.93;38.10;97798.94;4395345;32;20102;-81
2023/06/30 04:31:11;;;;;;;6.15;3.08;;;;;;;29.58;37.00;97792.63;4395362;32;20136;-81
2023/06/30 04:33:38;;;;;;;5.47;2.50;;;;;;;29.95;36.49;97794.12;4395498;32;20149;-81
2023/06/30 04:36:06;;;;;;;8.63;2.78;;;;;;;30.48;35.71;97797.13;4395499;32;20165;-81
2023/06/30 04:38:34;;;;;;;6.72;2.80;;;;;;;30.87;34.98;97800.16;4394940;32;20445;-81
2023/06/30 04:41:01;;;;;;;5.10;2.47;;;;;;;31.12;34.75;97803.91;4395426;32;20082;-81
2023/06/30 04:43:28;;;;;;;4.37;2.50;;;;;;;31.68;34.13;97798.25;4395428;32;20087;-81
2023/06/30 04:45:55;;;;;;;7.12;2.72;;;;;;;32.14;33.45;97794.75;4394992;32;20527;-81
2023/06/30 04:48:22;;;;;;;5.82;2.40;;;;;;;32.51;32.95;97799.38;4395346;32;20488;-81
2023/06/30 04:50:49;;;;;;;5.32;2.70;;;;;;;32.53;33.20;97801.84;4395289;32;20108;-81
2023/06/30 04:53:15;;;;;;;8.00;2.40;;;;;;;33.20;32.54;97795.19;4395097;32;20099;-81
2023/06/30 04:55:42;;;;;;;6.22;2.50;;;;;;;33.65;32.04;97795.88;4395375;32;20150;-81
2023/06/30 04:58:10;;;;;;;5.80;2.58;;;;;;;34.39;30.95;97798.72;4395341;32;20120;-81
2023/06/30 05:00:37;;;;;;;6.87;2.35;;;;;;;34.88;30.37;97796.91;4394761;32;20094;-81
2023/06/30 05:03:03;;;;;;;7.20;2.67;;;;;;;35.42;29.42;97797.81;4395398;32;20086;-81
2023/06/30 05:05:31;;;;;;;8.63;2.50;;;;;;;35.94;28.98;97798.81;4395313;32;20118;-81
2023/06/30 05:07:58;;;;;;;4.87;2.35;;;;;;;36.00;27.40;97797.06;4395084;32;20108;-81
2023/06/30 05:10:25;;;;;;;4.50;1.87;;;;;;;36.31;27.80;97798.56;4395206;32;20104;-81
2023/06/30 05:12:51;;;;;;;7.12;2.65;;;;;;;36.10;26.88;97799.97;4395181;32;20141;-81
2023/06/30 05:15:19;;;;;;;3.65;1.85;;;;;;;36.87;25.53;97797.87;4395288;32;20134;-81
2023/06/30 05:17:45;;;;;;;7.10;2.40;;;;;;;37.70;24.68;97804.47;4395058;32;20097;-81
2023/06/30 05:20:13;;;;;;;4.32;2.28;;;;;;;38.08;26.05;97801.03;4394670;32;20095;-81
2023/06/30 05:22:39;;;;;;;5.90;2.58;;;;;;;38.65;25.69;97808.78;4395195;32;20125;-81
2023/06/30 05:25:07;;;;;;;5.15;2.33;;;;;;;38.76;24.92;97815.97;4395158;32;20158;-81
2023/06/30 05:27:34;;;;;;;5.00;2.30;;;;;;;38.77;24.90;97817.59;4394845;32;20145;-81
2023/06/30 05:30:01;;;;;;;3.92;1.95;;;;;;;39.38;24.33;97816.62;4394829;32;20104;-81
2023/06/30 05:32:28;;;;;;;5.32;2.50;;;;;;;36.36;24.62;97804.06;4395119;32;20497;-81
2023/06/30 05:34:54;;;;;;;6.05;2.20;;;;;;;37.85;25.64;97811.97;4394818;32;20114;-81
2023/06/30 05:37:21;;;;;;;4.65;2.10;;;;;;;38.37;24.85;97806.28;4395228;32;20098;-81
2023/06/30 05:39:48;;;;;;;4.82;1.95;;;;;;;38.48;24.19;97806.16;4394779;32;20404;-81
2023/06/30 05:42:15;;;;;;;3.87;1.70;;;;;;;37.86;23.19;97810.94;4394659;32;20127;-81
2023/06/30 05:44:42;;;;;;;4.03;1.80;;;;;;;37.43;23.43;97804.28;4395092;32;20127;-80
2023/06/30 05:47:09;;;;;;;5.18;2.00;;;;;;;36.30;24.04;97805.00;4394988;32;20438;-81
2023/06/30 05:49:36;;;;;;;2.95;1.67;;;;;;;36.30;25.36;97800.44;4394433;32;20454;-81
2023/06/30 05:52:03;;;;;;;4.60;1.90;;;;;;;35.62;25.70;97801.81;4395094;32;20597;-80
2023/06/30 05:54:30;;;;;;;4.93;1.98;;;;;;;34.24;27.69;97801.72;4394850;32;20242;-80
2023/06/30 05:56:57;;;;;;;5.10;1.90;;;;;;;34.12;28.10;97793.63;4393942;32;20106;-81
2023/06/30 05:59:25;;;;;;;3.22;1.75;;;;;;;32.80;29.01;97794.53;4394840;32;20094;-80
2023/06/30 06:01:52;;;;;;;4.85;2.03;;;;;;;32.04;30.84;97791.69;4394626;32;20139;-80
2023/06/30 06:04:19;;;;;;;6.05;2.00;;;;;;;32.10;31.07;97790.84;4394869;32;20153;-80
2023/06/30 06:06:46;;;;;;;4.82;1.92;;;;;;;30.82;31.79;97795.44;4395010;32;20112;-82
2023/06/30 06:09:13;;;;;;;5.10;1.98;;;;;;;30.59;32.40;97793.06;4393984;32;20091;-82
2023/06/30 06:11:40;;;;;;;6.43;2.05;;;;;;;30.43;33.60;97796.06;4394847;32;20101;-79
2023/06/30 06:14:07;;;;;;;3.30;1.80;;;;;;;31.32;32.25;97796.00;4394762;32;20169;-80
2023/06/30 06:16:34;;;;;;;3.25;1.80;;;;;;;31.75;31.96;97804.44;4395737;32;20070;-80
2023/06/30 06:19:01;;;;;;;4.10;2.10;;;;;;;31.97;32.09;97797.03;4396918;32;20140;-82
2023/06/30 06:21:28;;;;;;;3.85;1.80;;;;;;;31.83;31.93;97803.41;4400695;32;20055;-83
2023/06/30 06:23:55;;;;;;;5.25;1.95;;;;;;;31.64;32.18;97797.84;4401308;32;20073;-82
2023/06/30 06:26:22;;;;;;;3.28;1.90;;;;;;;30.91;32.96;97801.41;4403214;32;20122;-84
2023/06/30 06:28:52;;;;;;;3.95;2.00;;;;;;;31.29;33.75;97801.72;4400818;32;20154;-84
2023/06/30 06:31:18;;;;;;;5.03;2.08;;;;;;;31.56;32.75;97802.56;4403735;32;20102;-83
2023/06/30 06:33:45;;;;;;;5.60;2.17;;;;;;;31.47;33.41;97804.59;4404850;32;20073;-84
2023/06/30 06:36:13;;;;;;;4.70;2.08;;;;;;;31.90;33.57;97797.06;4397711;32;20762;-82
2023/06/30 06:38:39;;;;;;;4.97;2.00;;;;;;;30.99;33.21;97787.91;4394274;32;20140;-82
2023/06/30 06:41:06;;;;;;;4.80;2.08;;;;;;;30.97;33.57;97790.78;4394724;32;20101;-79
2023/06/30 06:43:33;;;;;;;3.80;2.00;;;;;;;30.10;35.50;97786.09;4381080;32;20516;-78
2023/06/30 06:46:00;;;;;;;14.52;4.00;;;;;;;30.17;34.82;97784.25;4394796;32;20106;-80
2023/06/30 06:48:28;;;;;;;4.03;1.80;;;;;;;29.95;35.74;97780.81;4394466;32;20105;-80
2023/06/30 06:51:00;;;;;;;19.83;4.57;;;;;;;30.27;34.63;97781.25;4393885;32;20460;-79
2023/06/30 06:53:29;;;;;;;4.20;2.00;;;;;;;30.39;34.87;97781.50;4394364;32;20094;-79
2023/06/30 06:55:56;;;;;;;6.60;2.05;;;;;;;30.45;34.76;97778.88;4394396;32;20130;-79
2023/06/30 06:58:25;;;;;;;5.07;2.20;;;;;;;30.06;36.09;97773.31;4393940;32;20125;-79
2023/06/30 07:00:52;;;;;;;4.55;2.20;;;;;;;29.76;36.75;97781.50;4380340;32;20641;-78
2023/06/30 07:03:20;;;;;;;5.78;2.03;;;;;;;29.80;36.64;97787.28;4394214;32;20456;-79
2023/06/30 07:05:47;;;;;;;5.93;1.80;;;;;;;29.83;36.36;97779.72;4393882;32;20090;-79
2023/06/30 07:08:16;;;;;;;7.50;1.90;;;;;;;30.38;35.57;97782.53;4394151;32;20090;-79
2023/06/30 07:10:46;;;;;;;5.43;2.15;;;;;;;30.47;35.53;97786.66;4395102;32;20142;-79
2023/06/30 07:13:15;;;;;;;5.50;2.03;;;;;;;30.26;35.55;97784.94;4395607;32;20094;-79
2023/06/30 07:15:42;;;;;;;3.62;1.65;;;;;;;30.14;35.87;97782.00;4395908;32;20396;-79
2023/06/30 07:18:09;;;;;;;4.47;2.10;;;;;;;30.12;34.86;97781.38;4392462;32;20087;-79
2023/06/30 07:20:36;;;;;;;3.62;1.90;;;;;;;29.25;36.31;97792.31;4380569;32;20083;-79
2023/06/30 07:23:03;;;;;;;5.97;1.90;;;;;;;29.56;35.85;97778.72;4380968;32;20099;-79
2023/06/30 07:25:30;;;;;;;3.95;1.80;;;;;;;29.79;34.81;97785.63;4380924;32;20098;-79
2023/06/30 07:27:57;;;;;;;6.10;2.00;;;;;;;29.60;34.64;97789.78;4367173;32;20102;-79
2023/06/30 07:30:26;;;;;;;5.57;1.83;;;;;;;29.34;36.16;97792.97;4380557;32;20152;-79
2023/06/30 07:32:54;;;;;;;5.30;2.10;;;;;;;29.41;36.65;97787.75;4381116;32;20437;-79
2023/06/30 07:35:21;;;;;;;5.72;2.20;;;;;;;29.85;35.39;97793.63;4380396;32;20094;-79
2023/06/30 07:37:49;;;;;;;3.67;1.92;;;;;;;29.50;35.29;97787.44;4380793;32;20469;-79
2023/06/30 07:40:17;;;;;;;4.43;1.95;;;;;;;29.47;36.16;97785.16;4380203;32;20083;-79
2023/06/30 07:42:47;;;;;;;4.82;2.10;;;;;;;29.77;35.11;97780.47;4380908;32;20102;-80
2023/06/30 07:45:16;;;;;;;4.50;2.12;;;;;;;29.94;35.51;97781.84;4380815;32;20117;-80
2023/06/30 07:47:45;;;;;;;4.93;2.08;;;;;;;30.18;34.98;97777.09;4380402;32;20430;-80
2023/06/30 07:50:14;;;;;;;5.07;2.10;;;;;;;30.24;35.81;97776.31;4380250;32;20148;-80
2023/06/30 07:52:45;;;;;;;4.07;2.10;;;;;;;30.11;36.24;97777.06;4380740;32;20106;-79
2023/06/30 07:58:08;;;;;;;4.70;2.12;;;;;;;30.85;35.54;97775.59;4369913;32;20109;-80
2023/06/30 08:00:35;;;;;;;3.70;1.90;;;;;;;31.44;33.09;97778.34;4367041;32;20168;-81
2023/06/30 08:03:12;;;;;;;3.78;2.05;;;;;;;30.56;34.19;97782.81;4380481;32;20098;-80
2023/06/30 08:05:40;;;;;;;6.95;2.10;;;;;;;30.98;33.95;97772.94;4380627;32;20118;-80
2023/06/30 08:08:07;;;;;;;4.18;2.10;;;;;;;30.77;34.02;97768.59;4366867;32;20102;-80
2023/06/30 08:10:34;;;;;;;3.35;2.08;;;;;;;30.60;34.17;97773.41;4380292;32;20109;-80
2023/06/30 08:13:04;;;;;;;3.80;2.08;;;;;;;30.36;34.18;97774.75;4380783;32;20098;-81
2023/06/30 08:15:31;;;;;;;7.87;2.42;;;;;;;30.02;35.18;97766.75;4380254;32;20438;-81
2023/06/30 08:17:58;;;;;;;5.15;2.20;;;;;;;30.11;34.68;97766.44;4382151;32;20436;-81
2023/06/30 08:20:25;;;;;;;14.07;2.85;;;;;;;29.64;36.72;97769.75;4395045;32;20090;-81
2023/06/30 08:22:53;;;;;;;8.68;2.20;;;;;;;30.14;35.18;97770.53;4381820;32;20177;-80
2023/06/30 08:25:23;;;;;;;5.12;2.25;;;;;;;29.89;35.78;97767.50;4395631;32;20090;-80
2023/06/30 08:27:51;;;;;;;4.85;2.30;;;;;;;29.76;35.73;97762.06;4395591;32;20793;-81
2023/06/30 08:30:18;;;;;;;4.28;2.10;;;;;;;30.30;34.64;97766.72;4394930;32;20087;-81
2023/06/30 08:32:50;;;;;;;4.97;2.20;;;;;;;30.51;34.83;97764.75;4395548;32;20150;-81
2023/06/30 08:35:17;;;;;;;4.40;2.30;;;;;;;30.65;34.79;97754.22;4395535;32;20109;-81
2023/06/30 08:37:45;;;;;;;6.28;2.28;;;;;;;31.03;33.08;97763.31;4395217;32;20432;-80
2023/06/30 08:40:20;;;;;;;5.82;2.35;;;;;;;30.56;34.00;97758.03;4395120;32;20408;-80
2023/06/30 08:42:51;;;;;;;5.70;2.28;;;;;;;30.58;34.18;97762.13;4395507;32;20152;-81
2023/06/30 08:45:18;;;;;;;5.03;2.17;;;;;;;30.78;35.25;97754.25;4395482;32;20102;-81
2023/06/30 08:47:45;;;;;;;8.50;2.20;;;;;;;30.93;34.89;97759.41;4395500;32;20082;-81
2023/06/30 08:50:13;;;;;;;4.22;2.12;;;;;;;30.77;34.43;97755.28;4381417;32;20156;-81
2023/06/30 08:52:40;;;;;;;5.37;2.42;;;;;;;30.68;33.31;97749.31;4369592;32;20106;-81
2023/06/30 08:55:08;;;;;;;5.30;2.20;;;;;;;30.62;35.00;97752.72;4381793;32;20465;-81
2023/06/30 08:57:35;;;;;;;4.70;2.17;;;;;;;30.86;34.43;97751.41;4395020;32;20149;-81
2023/06/30 09:00:02;;;;;;;4.70;2.20;;;;;;;31.41;33.01;97749.44;4381499;32;20121;-81
2023/06/30 09:02:30;;;;;;;3.85;2.08;;;;;;;31.04;34.34;97756.12;4395386;32;20491;-81
2023/06/30 09:04:57;;;;;;;5.43;2.17;;;;;;;30.84;33.16;97752.59;4394872;32;20152;-81
2023/06/30 09:07:28;;;;;;;7.53;2.40;;;;;;;31.73;32.96;97747.78;4395340;32;20082;-81
2023/06/30 09:10:00;;;;;;;8.80;2.30;;;;;;;31.81;32.50;97754.78;4394948;32;20417;-81
2023/06/30 09:12:28;;;;;;;4.82;2.00;;;;;;;31.61;33.39;97750.28;4395721;32;20138;-82
2023/06/30 09:14:59;;;;;;;4.50;2.20;;;;;;;31.81;31.87;97752.13;4395174;32;20138;-81
2023/06/30 09:17:26;;;;;;;4.85;2.22;;;;;;;31.82;32.23;97756.44;4395094;32;20086;-80
2023/06/30 09:19:53;;;;;;;6.80;2.20;;;;;;;32.15;32.49;97759.03;4394224;32;20086;-81
2023/06/30 09:22:20;;;;;;;4.97;2.10;;;;;;;31.67;32.68;97748.59;4395103;32;20112;-80
2023/06/30 09:25:27;;;;;;;5.65;2.22;;;;;;;31.44;33.27;97756.22;4395018;32;20152;-81
2023/06/30 09:27:55;;;;;;;7.70;2.40;;;;;;;31.06;33.23;97754.94;4385090;32;20109;-81
2023/06/30 09:30:32;;;;;;;5.18;1.98;;;;;;;31.15;32.40;97752.06;4381473;32;20086;-80
2023/06/30 09:32:59;;;;;;;8.05;2.75;;;;;;;30.85;32.65;97749.78;4393938;32;20094;-80
2023/06/30 09:35:36;;;;;;;4.87;2.25;;;;;;;31.33;31.81;97746.97;4395133;32;20114;-81
2023/06/30 09:38:03;;;;;;;6.60;2.37;;;;;;;30.72;33.41;97755.03;4381657;32;20086;-79
2023/06/30 09:40:30;;;;;;;8.30;2.50;;;;;;;30.73;33.23;97754.00;4380979;32;20113;-80
2023/06/30 09:42:57;;;;;;;6.03;2.30;;;;;;;30.82;33.67;97758.13;4395156;32;20117;-80
2023/06/30 09:45:23;;;;;;;3.97;2.20;;;;;;;31.11;33.21;97751.66;4395286;32;20139;-79
2023/06/30 09:47:52;;;;;;;7.70;2.22;;;;;;;31.65;33.57;97756.00;4395123;32;20082;-80
2023/06/30 09:50:27;;;;;;;5.90;2.30;;;;;;;32.07;32.13;97746.72;4394675;32;20105;-80
2023/06/30 09:52:54;;;;;;;6.80;2.30;;;;;;;32.51;32.34;97745.97;4381609;32;20447;-80
2023/06/30 09:55:21;;;;;;;4.37;2.17;;;;;;;32.58;32.81;97763.84;4394551;32;20451;-80
2023/06/30 09:57:48;;;;;;;4.25;2.10;;;;;;;32.98;31.52;97759.94;4394890;32;20078;-79
2023/06/30 10:00:16;;;;;;;5.50;2.37;;;;;;;33.05;30.62;97755.38;4394561;32;20094;-79
2023/06/30 10:03:08;;;;;;;4.10;2.00;;;;;;;32.93;30.55;97757.09;4400648;32;20082;-81
2023/06/30 10:05:37;;;;;;;4.00;2.25;;;;;;;32.43;32.42;97756.91;4404987;32;20071;-81
2023/06/30 10:08:06;;;;;;;4.12;2.08;;;;;;;32.17;31.32;97754.28;4408437;32;20106;-80
2023/06/30 10:10:33;;;;;;;4.20;2.22;;;;;;;32.12;32.06;97749.59;4506124;27;20107;-81
2023/06/30 10:15:43;;;;;;;5.53;2.00;;;;;;;32.22;31.62;97749.12;4581722;27;20111;-80
2023/06/30 10:18:17;;;;;;;4.65;2.03;;;;;;;32.61;31.17;97742.03;4396426;32;20078;-81
2023/06/30 10:20:48;;;;;;;4.90;2.20;;;;;;;32.56;30.52;97736.53;4430467;27;20110;-80
2023/06/30 10:23:19;;;;;;;6.55;2.28;;;;;;;32.31;31.40;97736.41;4393213;32;20098;-80
2023/06/30 10:25:50;;;;;;;5.47;2.33;;;;;;;31.89;32.64;97742.03;4393588;32;20113;-81
2023/06/30 10:28:18;;;;;;;6.37;2.28;;;;;;;31.64;32.16;97727.69;4394220;32;20115;-81
2023/06/30 10:30:56;;;;;;;5.25;2.40;;;;;;;31.78;33.10;97725.84;4393431;32;20176;-80
2023/06/30 10:33:23;;;;;;;3.47;2.10;;;;;;;31.69;32.81;97730.56;4393863;32;20089;-82
2023/06/30 10:35:51;;;;;;;3.05;2.00;;;;;;;32.30;31.24;97732.09;4392891;32;20072;-80
2023/06/30 10:38:18;;;;;;;4.45;2.10;;;;;;;31.31;32.76;97722.37;4405494;32;20105;-81
2023/06/30 10:41:03;;;;;;;5.43;2.30;;;;;;;32.27;32.02;97733.31;4405888;32;20058;-81
2023/06/30 10:44:08;;;;;;;10.07;2.40;;;;;;;32.52;31.97;97733.44;4393329;32;20079;-81
2023/06/30 10:46:48;;;;;;;4.28;2.10;;;;;;;32.38;31.92;97723.84;4393910;32;20075;-81
2023/06/30 10:49:27;;;;;;;6.95;2.83;;;;;;;32.75;32.38;97720.41;4390374;32;20075;-82
2023/06/30 10:51:55;;;;;;;4.70;2.30;;;;;;;33.14;32.15;97710.50;4384638;32;20090;-82
2023/06/30 10:54:26;;;;;;;4.97;2.25;;;;;;;33.17;29.76;97704.69;4383889;32;20170;-82
2023/06/30 10:57:04;;;;;;;5.32;2.58;;;;;;;32.81;31.53;97702.66;4386970;32;20102;-82
2023/06/30 10:59:37;;;;;;;4.72;2.35;;;;;;;32.49;31.12;97699.97;4384038;32;20095;-81
2023/06/30 11:02:16;;;;;;;5.55;2.28;;;;;;;32.38;32.26;97703.31;4388059;32;20051;-82
2023/06/30 11:04:45;;;;;;;5.22;2.00;;;;;;;32.29;30.73;97699.25;4391572;32;20103;-82
2023/06/30 11:07:23;;;;;;;4.62;1.92;;;;;;;32.38;32.74;97694.50;4392029;32;20098;-82
2023/06/30 11:09:52;;;;;;;4.43;2.00;;;;;;;32.83;30.25;97681.09;4388559;32;20078;-82
2023/06/30 11:12:24;;;;;;;9.00;2.12;;;;;;;32.46;30.21;97692.41;4387475;32;20090;-81
2023/06/30 11:15:03;;;;;;;6.00;2.58;;;;;;;31.80;30.63;97692.63;4379792;32;20134;-81
2023/06/30 11:17:52;;;;;;;4.78;2.10;;;;;;;32.06;32.04;97689.03;4388090;32;20127;-82
2023/06/30 11:20:26;;;;;;;4.37;2.10;;;;;;;31.99;32.11;97680.22;4387110;32;20063;-82
2023/06/30 11:23:00;;;;;;;4.22;1.98;;;;;;;32.75;29.34;97679.47;4379961;32;20102;-82
2023/06/30 11:25:29;;;;;;;5.35;2.03;;;;;;;33.14;30.28;97672.25;4382081;32;20125;-81
2023/06/30 11:27:57;;;;;;;4.32;2.10;;;;;;;32.38;31.60;97676.63;4379590;32;20102;-81
2023/06/30 11:30:25;;;;;;;3.62;2.08;;;;;;;32.78;29.50;97674.53;4378863;32;20174;-81
2023/06/30 11:32:57;;;;;;;16.12;2.70;;;;;;;32.18;30.67;97681.19;4387392;32;20098;-81
2023/06/30 11:35:29;;;;;;;5.03;2.03;;;;;;;32.29;30.73;97677.03;4390382;32;20071;-82
2023/06/30 11:37:56;;;;;;;3.75;2.00;;;;;;;32.52;30.35;97672.03;4387671;32;20126;-81
2023/06/30 11:40:24;;;;;;;7.65;2.30;;;;;;;33.15;29.37;97657.84;4385470;32;20077;-81
2023/06/30 11:42:53;;;;;;;4.03;2.10;;;;;;;33.32;30.92;97658.94;4386144;32;20103;-81